sensor_id;sensor_type;location;lat;lon;timestamp;pressure;altitude;pressure_sealevel;temperature;humidity
13124;BME280;6627;50.920;12.050;2022-08-19T00:01:19;98487.63;;;23.98;91.80
13124;BME280;6627;50.920;12.050;2022-08-19T00:03:48;98494.75;;;23.84;93.05
13124;BME280;6627;50.920;12.050;2022-08-19T00:06:16;98471.81;;;23.95;93.04
13124;BME280;6627;50.920;12.050;2022-08-19T00:08:43;98470.59;;;24.28;92.17
13124;BME280;6627;50.920;12.050;2022-08-19T00:11:11;98463.06;;;24.42;91.22
13124;BME280;6627;50.920;12.050;2022-08-19T00:13:40;98456.31;;;24.51;89.82
13124;BME280;6627;50.920;12.050;2022-08-19T00:16:08;98472.91;;;24.58;89.05
13124;BME280;6627;50.920;12.050;2022-08-19T00:18:35;98476.91;;;24.35;89.14
13124;BME280;6627;50.920;12.050;2022-08-19T00:21:03;98482.03;;;24.33;89.01
13124;BME280;6627;50.920;12.050;2022-08-19T00:23:33;98469.03;;;24.23;89.10
13124;BME280;6627;50.920;12.050;2022-08-19T00:26:03;98476.91;;;24.28;89.56
13124;BME280;6627;50.920;12.050;2022-08-19T00:28:31;98479.72;;;24.07;90.66
13124;BME280;6627;50.920;12.050;2022-08-19T00:31:01;98465.50;;;23.98;91.44
13124;BME280;6627;50.920;12.050;2022-08-19T00:33:29;98453.56;;;24.29;91.15
13124;BME280;6627;50.920;12.050;2022-08-19T00:35:58;98443.34;;;24.19;91.51
13124;BME280;6627;50.920;12.050;2022-08-19T00:38:26;98426.69;;;24.33;90.75
13124;BME280;6627;50.920;12.050;2022-08-19T00:40:55;98423.16;;;24.22;90.86
13124;BME280;6627;50.920;12.050;2022-08-19T00:43:25;98413.25;;;24.21;90.60
13124;BME280;6627;50.920;12.050;2022-08-19T00:45:53;98419.63;;;24.11;91.61
13124;BME280;6627;50.920;12.050;2022-08-19T00:48:22;98412.53;;;24.03;91.46
13124;BME280;6627;50.920;12.050;2022-08-19T00:50:52;98398.28;;;24.08;91.28
13124;BME280;6627;50.920;12.050;2022-08-19T00:53:26;98386.44;;;24.04;91.25
13124;BME280;6627;50.920;12.050;2022-08-19T00:55:59;98384.81;;;24.17;91.51
13124;BME280;6627;50.920;12.050;2022-08-19T00:58:33;98373.78;;;23.99;91.13
13124;BME280;6627;50.920;12.050;2022-08-19T01:01:01;98371.06;;;23.88;91.81
13124;BME280;6627;50.920;12.050;2022-08-19T01:03:30;98372.69;;;23.82;91.94
13124;BME280;6627;50.920;12.050;2022-08-19T01:05:57;98380.16;;;23.46;94.99
13124;BME280;6627;50.920;12.050;2022-08-19T01:08:26;98375.44;;;23.32;96.90
13124;BME280;6627;50.920;12.050;2022-08-19T01:10:56;98365.56;;;23.78;95.70
13124;BME280;6627;50.920;12.050;2022-08-19T01:13:30;98361.22;;;23.80;95.25
13124;BME280;6627;50.920;12.050;2022-08-19T01:16:04;98357.19;;;24.06;94.66
13124;BME280;6627;50.920;12.050;2022-08-19T01:18:38;98334.25;;;24.13;94.07
13124;BME280;6627;50.920;12.050;2022-08-19T01:21:15;98326.31;;;24.22;92.96
13124;BME280;6627;50.920;12.050;2022-08-19T01:23:46;98321.56;;;24.15;92.31
13124;BME280;6627;50.920;12.050;2022-08-19T01:26:17;98320.03;;;24.11;93.03
13124;BME280;6627;50.920;12.050;2022-08-19T01:28:47;98328.38;;;23.97;93.23
13124;BME280;6627;50.920;12.050;2022-08-19T01:31:19;98331.13;;;24.00;94.94
13124;BME280;6627;50.920;12.050;2022-08-19T01:33:47;98322.44;;;23.95;95.30
13124;BME280;6627;50.920;12.050;2022-08-19T01:36:23;98317.03;;;23.30;97.51
13124;BME280;6627;50.920;12.050;2022-08-19T01:38:53;98309.81;;;23.94;96.59
13124;BME280;6627;50.920;12.050;2022-08-19T01:41:21;98308.72;;;23.23;98.47
13124;BME280;6627;50.920;12.050;2022-08-19T01:43:50;98307.56;;;23.10;99.33
13124;BME280;6627;50.920;12.050;2022-08-19T01:46:18;98311.44;;;23.59;99.19
13124;BME280;6627;50.920;12.050;2022-08-19T01:48:46;98310.69;;;23.65;98.97
13124;BME280;6627;50.920;12.050;2022-08-19T01:51:14;98301.13;;;23.95;97.42
13124;BME280;6627;50.920;12.050;2022-08-19T01:53:41;98295.63;;;23.77;96.24
13124;BME280;6627;50.920;12.050;2022-08-19T01:56:10;98293.97;;;24.05;95.04
13124;BME280;6627;50.920;12.050;2022-08-19T01:58:42;98303.59;;;23.36;96.42
13124;BME280;6627;50.920;12.050;2022-08-19T02:01:12;98315.44;;;23.69;96.42
13124;BME280;6627;50.920;12.050;2022-08-19T02:03:40;98306.31;;;23.79;95.40
13124;BME280;6627;50.920;12.050;2022-08-19T02:06:07;98308.25;;;23.85;95.44
13124;BME280;6627;50.920;12.050;2022-08-19T02:08:37;98309.28;;;24.24;93.76
13124;BME280;6627;50.920;12.050;2022-08-19T02:11:07;98316.22;;;23.40;93.98
13124;BME280;6627;50.920;12.050;2022-08-19T02:13:35;98343.41;;;23.96;96.15
13124;BME280;6627;50.920;12.050;2022-08-19T02:16:03;98318.56;;;23.67;94.71
13124;BME280;6627;50.920;12.050;2022-08-19T02:18:30;98320.94;;;23.72;96.00
13124;BME280;6627;50.920;12.050;2022-08-19T02:20:57;98303.41;;;24.11;95.17
13124;BME280;6627;50.920;12.050;2022-08-19T02:23:24;98303.03;;;24.09;94.97
13124;BME280;6627;50.920;12.050;2022-08-19T02:25:53;98312.63;;;23.72;96.01
13124;BME280;6627;50.920;12.050;2022-08-19T02:28:20;98286.16;;;23.82;95.14
13124;BME280;6627;50.920;12.050;2022-08-19T02:30:48;98278.09;;;24.16;93.09
13124;BME280;6627;50.920;12.050;2022-08-19T02:33:16;98291.63;;;23.92;94.00
13124;BME280;6627;50.920;12.050;2022-08-19T02:35:44;98301.13;;;23.84;94.69
13124;BME280;6627;50.920;12.050;2022-08-19T02:38:13;98301.16;;;23.81;94.21
13124;BME280;6627;50.920;12.050;2022-08-19T02:40:56;98303.03;;;24.09;91.99
13124;BME280;6627;50.920;12.050;2022-08-19T02:43:24;98326.31;;;24.22;92.31
13124;BME280;6627;50.920;12.050;2022-08-19T02:45:53;98336.72;;;23.79;92.86
13124;BME280;6627;50.920;12.050;2022-08-19T02:48:23;98323.91;;;24.24;91.90
13124;BME280;6627;50.920;12.050;2022-08-19T02:50:52;98331.00;;;24.32;89.96
13124;BME280;6627;50.920;12.050;2022-08-19T02:53:22;98353.22;;;24.14;89.99
13124;BME280;6627;50.920;12.050;2022-08-19T02:55:50;98362.66;;;24.31;89.32
13124;BME280;6627;50.920;12.050;2022-08-19T02:58:19;98377.63;;;24.45;88.58
13124;BME280;6627;50.920;12.050;2022-08-19T03:00:50;98414.09;;;24.04;90.83
13124;BME280;6627;50.920;12.050;2022-08-19T03:03:19;98424.78;;;24.02;92.19
13124;BME280;6627;50.920;12.050;2022-08-19T03:05:48;98437.06;;;23.79;93.96
13124;BME280;6627;50.920;12.050;2022-08-19T03:08:15;98427.94;;;24.04;94.92
13124;BME280;6627;50.920;12.050;2022-08-19T03:10:44;98418.78;;;24.28;92.66
13124;BME280;6627;50.920;12.050;2022-08-19T03:13:14;98421.25;;;23.80;93.73
13124;BME280;6627;50.920;12.050;2022-08-19T03:15:44;98424.38;;;24.07;94.96
13124;BME280;6627;50.920;12.050;2022-08-19T03:18:13;98418.38;;;24.30;92.85
13124;BME280;6627;50.920;12.050;2022-08-19T03:20:43;98420.41;;;24.15;93.32
13124;BME280;6627;50.920;12.050;2022-08-19T03:23:11;98424.38;;;24.07;93.38
13124;BME280;6627;50.920;12.050;2022-08-19T03:25:42;98418.38;;;24.33;92.76
13124;BME280;6627;50.920;12.050;2022-08-19T03:28:10;98410.06;;;24.33;91.71
13124;BME280;6627;50.920;12.050;2022-08-19T03:30:39;98414.06;;;24.39;91.55
13124;BME280;6627;50.920;12.050;2022-08-19T03:33:08;98420.66;;;24.60;90.37
13124;BME280;6627;50.920;12.050;2022-08-19T03:35:35;98427.47;;;24.34;89.88
13124;BME280;6627;50.920;12.050;2022-08-19T03:38:05;98445.66;;;24.46;89.80
13124;BME280;6627;50.920;12.050;2022-08-19T03:40:36;98444.50;;;24.25;89.98
13124;BME280;6627;50.920;12.050;2022-08-19T03:43:03;98453.56;;;24.36;89.16
13124;BME280;6627;50.920;12.050;2022-08-19T03:45:31;98464.66;;;24.40;90.45
13124;BME280;6627;50.920;12.050;2022-08-19T03:47:59;98461.47;;;24.34;90.69
13124;BME280;6627;50.920;12.050;2022-08-19T03:50:26;98464.72;;;23.79;92.49
13124;BME280;6627;50.920;12.050;2022-08-19T03:52:53;98441.34;;;24.23;92.12
13124;BME280;6627;50.920;12.050;2022-08-19T03:55:22;98435.00;;;24.44;90.75
13124;BME280;6627;50.920;12.050;2022-08-19T03:57:49;98433.81;;;24.31;90.36
13124;BME280;6627;50.920;12.050;2022-08-19T04:00:17;98438.97;;;24.25;90.64
13124;BME280;6627;50.920;12.050;2022-08-19T04:02:45;98433.81;;;24.41;89.56
13124;BME280;6627;50.920;12.050;2022-08-19T04:05:12;98448.03;;;24.44;89.06
13124;BME280;6627;50.920;12.050;2022-08-19T04:07:40;98465.50;;;24.05;90.57
13124;BME280;6627;50.920;12.050;2022-08-19T04:10:08;98459.16;;;24.08;90.94
13124;BME280;6627;50.920;12.050;2022-08-19T04:12:37;98469.84;;;24.06;91.34
13124;BME280;6627;50.920;12.050;2022-08-19T04:15:06;98467.06;;;23.56;93.87
13124;BME280;6627;50.920;12.050;2022-08-19T04:17:34;98459.19;;;23.72;95.02
13124;BME280;6627;50.920;12.050;2022-08-19T04:20:01;98446.53;;;23.57;97.20
13124;BME280;6627;50.920;12.050;2022-08-19T04:22:29;98414.91;;;24.01;94.80
13124;BME280;6627;50.920;12.050;2022-08-19T04:24:56;98414.81;;;24.29;92.99
13124;BME280;6627;50.920;12.050;2022-08-19T04:27:23;98409.38;;;23.94;94.28
13124;BME280;6627;50.920;12.050;2022-08-19T04:29:51;98411.00;;;23.87;95.44
13124;BME280;6627;50.920;12.050;2022-08-19T04:32:20;98405.47;;;23.66;96.46
13124;BME280;6627;50.920;12.050;2022-08-19T04:34:48;98414.16;;;23.72;96.58
13124;BME280;6627;50.920;12.050;2022-08-19T04:37:15;98397.16;;;23.91;95.14
13124;BME280;6627;50.920;12.050;2022-08-19T04:39:42;98399.94;;;23.87;95.83
13124;BME280;6627;50.920;12.050;2022-08-19T04:42:30;98396.78;;;23.71;94.57
13124;BME280;6627;50.920;12.050;2022-08-19T04:45:10;98395.16;;;23.99;94.41
13124;BME280;6627;50.920;12.050;2022-08-19T04:47:41;98403.03;;;24.04;94.72
13124;BME280;6627;50.920;12.050;2022-08-19T04:50:09;98383.19;;;24.30;92.59
13124;BME280;6627;50.920;12.050;2022-08-19T04:52:37;98390.75;;;24.12;92.47
13124;BME280;6627;50.920;12.050;2022-08-19T04:55:08;98406.53;;;24.33;91.62
13124;BME280;6627;50.920;12.050;2022-08-19T04:57:36;98425.88;;;24.36;92.09
13124;BME280;6627;50.920;12.050;2022-08-19T05:00:10;98425.16;;;24.18;92.14
13124;BME280;6627;50.920;12.050;2022-08-19T05:02:38;98425.53;;;24.20;91.36
13124;BME280;6627;50.920;12.050;2022-08-19T05:05:06;98429.09;;;24.17;91.33
13124;BME280;6627;50.920;12.050;2022-08-19T05:07:34;98433.81;;;24.31;90.65
13124;BME280;6627;50.920;12.050;2022-08-19T05:10:04;98444.19;;;23.91;92.21
13124;BME280;6627;50.920;12.050;2022-08-19T05:12:32;98448.13;;;24.01;92.90
13124;BME280;6627;50.920;12.050;2022-08-19T05:15:00;98439.38;;;24.16;92.43
13124;BME280;6627;50.920;12.050;2022-08-19T05:17:29;98437.00;;;24.15;92.73
13124;BME280;6627;50.920;12.050;2022-08-19T05:19:57;98433.03;;;24.23;93.05
13124;BME280;6627;50.920;12.050;2022-08-19T05:22:43;98429.94;;;23.85;94.05
13124;BME280;6627;50.920;12.050;2022-08-19T05:25:15;98422.84;;;23.84;94.71
13124;BME280;6627;50.920;12.050;2022-08-19T05:27:44;98413.34;;;23.92;93.80
13124;BME280;6627;50.920;12.050;2022-08-19T05:30:13;98420.47;;;23.79;95.33
13124;BME280;6627;50.920;12.050;2022-08-19T05:32:41;98426.78;;;23.90;95.94
13124;BME280;6627;50.920;12.050;2022-08-19T05:35:09;98405.41;;;24.02;94.37
13124;BME280;6627;50.920;12.050;2022-08-19T05:37:37;98418.06;;;24.13;95.68
13124;BME280;6627;50.920;12.050;2022-08-19T05:40:07;98414.03;;;24.32;93.47
13124;BME280;6627;50.920;12.050;2022-08-19T05:42:34;98426.28;;;24.42;93.20
13124;BME280;6627;50.920;12.050;2022-08-19T05:45:02;98430.34;;;23.87;96.48
13124;BME280;6627;50.920;12.050;2022-08-19T05:47:30;98414.91;;;24.04;94.97
13124;BME280;6627;50.920;12.050;2022-08-19T05:49:59;98411.78;;;23.56;95.82
13124;BME280;6627;50.920;12.050;2022-08-19T05:52:27;98419.56;;;24.32;95.78
13124;BME280;6627;50.920;12.050;2022-08-19T05:54:54;98422.81;;;23.99;95.27
13124;BME280;6627;50.920;12.050;2022-08-19T05:57:23;98425.19;;;23.93;95.21
13124;BME280;6627;50.920;12.050;2022-08-19T05:59:51;98441.81;;;23.82;96.74
13124;BME280;6627;50.920;12.050;2022-08-19T06:02:19;98434.25;;;24.08;96.26
13124;BME280;6627;50.920;12.050;2022-08-19T06:04:46;98418.75;;;24.50;93.66
13124;BME280;6627;50.920;12.050;2022-08-19T06:07:15;98434.69;;;23.88;95.04
13124;BME280;6627;50.920;12.050;2022-08-19T06:09:42;98461.50;;;24.20;94.36
13124;BME280;6627;50.920;12.050;2022-08-19T06:12:09;98472.56;;;24.41;93.73
13124;BME280;6627;50.920;12.050;2022-08-19T06:14:37;98478.88;;;24.46;92.46
13124;BME280;6627;50.920;12.050;2022-08-19T06:17:04;98500.28;;;24.13;94.17
13124;BME280;6627;50.920;12.050;2022-08-19T06:19:31;98512.94;;;24.14;95.38
13124;BME280;6627;50.920;12.050;2022-08-19T06:22:00;98512.13;;;24.10;95.65
13124;BME280;6627;50.920;12.050;2022-08-19T06:24:29;98493.94;;;24.16;94.46
13124;BME280;6627;50.920;12.050;2022-08-19T06:26:59;98495.06;;;24.58;93.17
13124;BME280;6627;50.920;12.050;2022-08-19T06:29:27;98501.03;;;24.31;92.32
13124;BME280;6627;50.920;12.050;2022-08-19T06:31:58;98524.78;;;24.18;94.43
13124;BME280;6627;50.920;12.050;2022-08-19T06:34:27;98527.16;;;24.23;94.25
13124;BME280;6627;50.920;12.050;2022-08-19T06:36:58;98544.53;;;23.99;96.45
13124;BME280;6627;50.920;12.050;2022-08-19T06:39:30;98531.88;;;24.33;95.90
13124;BME280;6627;50.920;12.050;2022-08-19T06:42:02;98550.88;;;24.06;97.66
13124;BME280;6627;50.920;12.050;2022-08-19T06:44:35;98545.34;;;23.74;98.98
13124;BME280;6627;50.920;12.050;2022-08-19T06:47:05;98543.38;;;24.14;98.47
13124;BME280;6627;50.920;12.050;2022-08-19T06:49:35;98535.03;;;24.35;96.76
13124;BME280;6627;50.920;12.050;2022-08-19T06:52:05;98530.28;;;24.29;96.31
13124;BME280;6627;50.920;12.050;2022-08-19T06:54:33;98541.38;;;23.75;98.15
13124;BME280;6627;50.920;12.050;2022-08-19T06:57:03;98546.53;;;23.73;98.57
13124;BME280;6627;50.920;12.050;2022-08-19T06:59:31;98546.91;;;23.97;98.82
13124;BME280;6627;50.920;12.050;2022-08-19T07:02:03;98532.66;;;24.30;96.21
13124;BME280;6627;50.920;12.050;2022-08-19T07:04:34;98535.06;;;23.92;95.46
13124;BME280;6627;50.920;12.050;2022-08-19T07:07:06;98538.22;;;24.16;95.48
13124;BME280;6627;50.920;12.050;2022-08-19T07:09:38;98539.00;;;24.27;96.28
13124;BME280;6627;50.920;12.050;2022-08-19T07:12:11;98537.84;;;24.14;95.27
13124;BME280;6627;50.920;12.050;2022-08-19T07:14:39;98539.00;;;24.38;95.25
13124;BME280;6627;50.920;12.050;2022-08-19T07:17:09;98531.06;;;24.36;93.65
13124;BME280;6627;50.920;12.050;2022-08-19T07:19:39;98537.34;;;24.69;93.22
13124;BME280;6627;50.920;12.050;2022-08-19T07:22:08;98546.91;;;24.36;93.35
13124;BME280;6627;50.920;12.050;2022-08-19T07:24:38;98555.25;;;24.39;92.17
13124;BME280;6627;50.920;12.050;2022-08-19T07:27:06;98566.66;;;23.77;94.58
13124;BME280;6627;50.920;12.050;2022-08-19T07:29:37;98567.47;;;24.31;94.31
13124;BME280;6627;50.920;12.050;2022-08-19T07:32:05;98556.38;;;24.60;93.32
13124;BME280;6627;50.920;12.050;2022-08-19T07:34:33;98559.56;;;24.48;92.91
13124;BME280;6627;50.920;12.050;2022-08-19T07:37:03;98563.53;;;23.97;93.03
13124;BME280;6627;50.920;12.050;2022-08-19T07:39:35;98575.38;;;24.44;93.19
13124;BME280;6627;50.920;12.050;2022-08-19T07:42:08;98580.13;;;24.47;93.15
13124;BME280;6627;50.920;12.050;2022-08-19T07:44:37;98575.00;;;23.91;93.35
13124;BME280;6627;50.920;12.050;2022-08-19T07:47:04;98588.81;;;24.59;92.55
13124;BME280;6627;50.920;12.050;2022-08-19T07:49:32;98575.75;;;24.03;91.47
13124;BME280;6627;50.920;12.050;2022-08-19T07:52:05;98594.75;;;24.08;94.20
13124;BME280;6627;50.920;12.050;2022-08-19T07:54:38;98591.19;;;24.32;93.76
13124;BME280;6627;50.920;12.050;2022-08-19T07:57:08;98590.41;;;24.17;92.72
13124;BME280;6627;50.920;12.050;2022-08-19T07:59:35;98585.66;;;24.25;92.36
13124;BME280;6627;50.920;12.050;2022-08-19T08:02:03;98595.16;;;24.53;91.58
13124;BME280;6627;50.920;12.050;2022-08-19T08:04:31;98596.34;;;24.23;92.27
13124;BME280;6627;50.920;12.050;2022-08-19T08:07:17;98595.94;;;24.25;91.08
13124;BME280;6627;50.920;12.050;2022-08-19T08:10:02;98607.00;;;24.25;91.45
13124;BME280;6627;50.920;12.050;2022-08-19T08:12:36;98599.13;;;24.37;90.84
13124;BME280;6627;50.920;12.050;2022-08-19T08:15:13;98613.38;;;24.39;91.15
13124;BME280;6627;50.920;12.050;2022-08-19T08:17:43;98623.22;;;24.55;90.62
13124;BME280;6627;50.920;12.050;2022-08-19T08:20:11;98610.97;;;24.59;88.87
13124;BME280;6627;50.920;12.050;2022-08-19T08:22:43;98628.34;;;24.81;89.87
13124;BME280;6627;50.920;12.050;2022-08-19T08:25:28;98616.84;;;24.83;87.62
13124;BME280;6627;50.920;12.050;2022-08-19T08:27:57;98641.78;;;24.94;88.05
13124;BME280;6627;50.920;12.050;2022-08-19T08:30:28;98594.34;;;24.06;86.83
13124;BME280;6627;50.920;12.050;2022-08-19T08:32:56;98642.41;;;23.48;93.15
13124;BME280;6627;50.920;12.050;2022-08-19T08:35:24;98651.28;;;24.07;93.06
13124;BME280;6627;50.920;12.050;2022-08-19T08:37:54;98635.22;;;23.25;95.81
13124;BME280;6627;50.920;12.050;2022-08-19T08:40:29;98638.16;;;23.75;96.01
13124;BME280;6627;50.920;12.050;2022-08-19T08:43:06;98635.25;;;23.39;98.24
13124;BME280;6627;50.920;12.050;2022-08-19T08:45:42;98626.75;;;24.02;97.36
13124;BME280;6627;50.920;12.050;2022-08-19T08:48:20;98613.31;;;23.82;97.73
13124;BME280;6627;50.920;12.050;2022-08-19T08:50:53;98602.13;;;23.47;98.42
13124;BME280;6627;50.920;12.050;2022-08-19T08:53:23;98606.00;;;23.28;100.00
13124;BME280;6627;50.920;12.050;2022-08-19T08:55:51;98596.59;;;23.43;100.00
13124;BME280;6627;50.920;12.050;2022-08-19T08:58:33;98600.56;;;23.53;100.00
13124;BME280;6627;50.920;12.050;2022-08-19T09:01:10;98582.50;;;24.05;99.24
13124;BME280;6627;50.920;12.050;2022-08-19T09:03:40;98579.19;;;23.46;98.46
13124;BME280;6627;50.920;12.050;2022-08-19T09:06:17;98578.53;;;24.10;97.72
13124;BME280;6627;50.920;12.050;2022-08-19T09:09:02;98588.78;;;23.84;97.89
13124;BME280;6627;50.920;12.050;2022-08-19T09:11:50;98596.56;;;23.39;100.00
13124;BME280;6627;50.920;12.050;2022-08-19T09:14:35;98587.56;;;23.67;100.00
13124;BME280;6627;50.920;12.050;2022-08-19T09:17:04;98575.22;;;23.29;100.00
13124;BME280;6627;50.920;12.050;2022-08-19T09:19:34;98568.97;;;23.54;99.31
13124;BME280;6627;50.920;12.050;2022-08-19T09:22:02;98571.41;;;23.77;99.65
13124;BME280;6627;50.920;12.050;2022-08-19T09:24:31;98571.31;;;23.45;100.00
13124;BME280;6627;50.920;12.050;2022-08-19T09:26:58;98569.72;;;23.44;99.59
13124;BME280;6627;50.920;12.050;2022-08-19T09:29:26;98576.59;;;22.87;100.00
13124;BME280;6627;50.920;12.050;2022-08-19T09:31:55;98572.88;;;23.46;100.00
13124;BME280;6627;50.920;12.050;2022-08-19T09:34:22;98562.63;;;23.53;99.14
13124;BME280;6627;50.920;12.050;2022-08-19T09:36:50;98559.00;;;23.17;98.77
13124;BME280;6627;50.920;12.050;2022-08-19T09:39:19;98562.59;;;23.35;98.99
13124;BME280;6627;50.920;12.050;2022-08-19T09:41:46;98552.28;;;23.18;98.40
13124;BME280;6627;50.920;12.050;2022-08-19T09:44:15;98558.66;;;23.29;98.03
13124;BME280;6627;50.920;12.050;2022-08-19T09:46:44;98571.53;;;22.97;97.93
13124;BME280;6627;50.920;12.050;2022-08-19T09:49:12;98566.47;;;23.13;96.37
13124;BME280;6627;50.920;12.050;2022-08-19T09:51:40;98575.13;;;23.08;96.13
13124;BME280;6627;50.920;12.050;2022-08-19T09:54:08;98578.13;;;22.78;97.22
13124;BME280;6627;50.920;12.050;2022-08-19T09:56:35;98579.84;;;23.04;97.13
13124;BME280;6627;50.920;12.050;2022-08-19T09:59:03;98602.50;;;22.65;98.10
13124;BME280;6627;50.920;12.050;2022-08-19T10:01:32;98589.34;;;23.03;97.33
13124;BME280;6627;50.920;12.050;2022-08-19T10:04:01;98581.75;;;22.92;95.88
13124;BME280;6627;50.920;12.050;2022-08-19T10:06:30;98585.47;;;23.25;93.83
13124;BME280;6627;50.920;12.050;2022-08-19T10:08:59;98573.13;;;23.01;91.88
13124;BME280;6627;50.920;12.050;2022-08-19T10:11:26;98572.91;;;23.49;89.11
13124;BME280;6627;50.920;12.050;2022-08-19T10:13:54;98596.38;;;22.97;90.21
13124;BME280;6627;50.920;12.050;2022-08-19T10:16:23;98622.59;;;23.24;89.83
13124;BME280;6627;50.920;12.050;2022-08-19T10:18:52;98615.41;;;23.09;87.96
13124;BME280;6627;50.920;12.050;2022-08-19T10:21:25;98634.25;;;22.92;89.33
13124;BME280;6627;50.920;12.050;2022-08-19T10:23:56;98653.81;;;22.73;91.59
13124;BME280;6627;50.920;12.050;2022-08-19T10:26:27;98655.50;;;22.88;92.21
13124;BME280;6627;50.920;12.050;2022-08-19T10:28:56;98642.03;;;22.83;89.99
13124;BME280;6627;50.920;12.050;2022-08-19T10:31:28;98643.97;;;22.72;92.01
13124;BME280;6627;50.920;12.050;2022-08-19T10:33:57;98654.13;;;23.16;91.23
13124;BME280;6627;50.920;12.050;2022-08-19T10:36:30;98645.16;;;22.75;90.36
13124;BME280;6627;50.920;12.050;2022-08-19T10:39:00;98635.69;;;22.72;87.79
13124;BME280;6627;50.920;12.050;2022-08-19T10:41:31;98639.81;;;23.00;86.72
13124;BME280;6627;50.920;12.050;2022-08-19T10:44:04;98643.19;;;22.75;86.76
13124;BME280;6627;50.920;12.050;2022-08-19T10:46:37;98634.78;;;22.57;86.20
13124;BME280;6627;50.920;12.050;2022-08-19T10:49:09;98644.44;;;22.88;85.78
13124;BME280;6627;50.920;12.050;2022-08-19T10:51:39;98647.09;;;23.36;83.45
13124;BME280;6627;50.920;12.050;2022-08-19T10:54:25;98639.34;;;23.67;80.28
13124;BME280;6627;50.920;12.050;2022-08-19T10:57:14;98638.03;;;23.39;78.71
13124;BME280;6627;50.920;12.050;2022-08-19T10:59:40;98663.13;;;23.06;80.01
13124;BME280;6627;50.920;12.050;2022-08-19T11:02:10;98684.00;;;23.00;80.88
13124;BME280;6627;50.920;12.050;2022-08-19T11:04:39;98694.44;;;23.31;80.22
13124;BME280;6627;50.920;12.050;2022-08-19T11:07:08;98682.00;;;22.97;79.32
13124;BME280;6627;50.920;12.050;2022-08-19T11:09:41;98703.75;;;22.98;80.24
13124;BME280;6627;50.920;12.050;2022-08-19T11:12:10;98718.34;;;22.51;82.04
13124;BME280;6627;50.920;12.050;2022-08-19T11:14:38;98713.63;;;22.55;82.08
13124;BME280;6627;50.920;12.050;2022-08-19T11:17:06;98705.53;;;22.80;81.92
13124;BME280;6627;50.920;12.050;2022-08-19T11:19:34;98700.72;;;23.21;80.63
13124;BME280;6627;50.920;12.050;2022-08-19T11:22:02;98700.03;;;23.46;79.42
13124;BME280;6627;50.920;12.050;2022-08-19T11:24:31;98717.25;;;23.14;82.54
13124;BME280;6627;50.920;12.050;2022-08-19T11:27:03;98699.97;;;23.31;80.82
13124;BME280;6627;50.920;12.050;2022-08-19T11:29:32;98709.59;;;23.62;79.74
13124;BME280;6627;50.920;12.050;2022-08-19T11:32:04;98719.22;;;23.86;78.89
13124;BME280;6627;50.920;12.050;2022-08-19T11:34:31;98706.53;;;23.78;77.50
13124;BME280;6627;50.920;12.050;2022-08-19T11:36:58;98733.53;;;24.13;78.97
13124;BME280;6627;50.920;12.050;2022-08-19T11:39:31;98727.59;;;24.29;78.20
13124;BME280;6627;50.920;12.050;2022-08-19T11:41:59;98703.53;;;24.51;76.39
13124;BME280;6627;50.920;12.050;2022-08-19T11:44:27;98712.47;;;23.80;79.18
13124;BME280;6627;50.920;12.050;2022-08-19T11:46:56;98728.03;;;24.31;79.13
13124;BME280;6627;50.920;12.050;2022-08-19T11:49:23;98729.59;;;24.32;79.79
13124;BME280;6627;50.920;12.050;2022-08-19T11:51:50;98705.91;;;24.56;77.42
13124;BME280;6627;50.920;12.050;2022-08-19T11:54:18;98703.50;;;24.33;78.39
13124;BME280;6627;50.920;12.050;2022-08-19T11:56:46;98684.50;;;24.25;76.61
13124;BME280;6627;50.920;12.050;2022-08-19T11:59:15;98697.91;;;24.05;77.18
13124;BME280;6627;50.920;12.050;2022-08-19T12:01:42;98705.50;;;24.44;76.83
13124;BME280;6627;50.920;12.050;2022-08-19T12:04:10;98701.94;;;24.36;76.69
13124;BME280;6627;50.920;12.050;2022-08-19T12:06:39;98729.19;;;24.23;79.79
13124;BME280;6627;50.920;12.050;2022-08-19T12:09:09;98723.13;;;23.78;81.08
13124;BME280;6627;50.920;12.050;2022-08-19T12:11:38;98722.47;;;24.28;80.29
13124;BME280;6627;50.920;12.050;2022-08-19T12:14:12;98686.03;;;23.94;78.68
13124;BME280;6627;50.920;12.050;2022-08-19T12:16:40;98675.03;;;24.33;76.97
13124;BME280;6627;50.920;12.050;2022-08-19T12:19:07;98674.97;;;24.08;75.92
13124;BME280;6627;50.920;12.050;2022-08-19T12:21:35;98682.91;;;24.20;75.87
13124;BME280;6627;50.920;12.050;2022-08-19T12:24:05;98694.38;;;24.29;75.71
13124;BME280;6627;50.920;12.050;2022-08-19T12:26:34;98724.78;;;24.08;78.08
13124;BME280;6627;50.920;12.050;2022-08-19T12:29:03;98717.78;;;24.50;78.40
13124;BME280;6627;50.920;12.050;2022-08-19T12:31:32;98696.28;;;23.82;78.44
13124;BME280;6627;50.920;12.050;2022-08-19T12:33:59;98673.84;;;24.23;76.58
13124;BME280;6627;50.920;12.050;2022-08-19T12:36:27;98691.25;;;24.27;77.12
13124;BME280;6627;50.920;12.050;2022-08-19T12:38:54;98684.50;;;25.14;74.14
13124;BME280;6627;50.920;12.050;2022-08-19T12:41:25;98673.09;;;24.58;73.37
13124;BME280;6627;50.920;12.050;2022-08-19T12:43:52;98650.47;;;24.03;72.92
13124;BME280;6627;50.920;12.050;2022-08-19T12:46:20;98700.38;;;24.60;73.01
13124;BME280;6627;50.920;12.050;2022-08-19T12:48:48;98726.50;;;25.09;72.83
13124;BME280;6627;50.920;12.050;2022-08-19T12:51:18;98726.50;;;25.09;73.36
13124;BME280;6627;50.920;12.050;2022-08-19T12:53:46;98722.13;;;25.08;71.41
13124;BME280;6627;50.920;12.050;2022-08-19T12:56:13;98727.25;;;25.27;71.12
13124;BME280;6627;50.920;12.050;2022-08-19T12:58:42;98712.16;;;25.35;70.06
13124;BME280;6627;50.920;12.050;2022-08-19T13:01:12;98729.53;;;25.64;70.24
13124;BME280;6627;50.920;12.050;2022-08-19T13:03:40;98696.16;;;25.75;68.59
13124;BME280;6627;50.920;12.050;2022-08-19T13:06:09;98701.13;;;25.28;69.59
13124;BME280;6627;50.920;12.050;2022-08-19T13:08:37;98685.31;;;24.89;69.27
13124;BME280;6627;50.920;12.050;2022-08-19T13:11:10;98707.47;;;24.82;70.29
13124;BME280;6627;50.920;12.050;2022-08-19T13:13:40;98712.97;;;24.14;71.94